Terminal Aerodrome Forecast
Issued by NWS Cleveland, OH

Home | Current Version | Previous Version | Text Only | Print | Product List | Glossary On
Versions: 1 2 3 4 5 6 7 8 9 10 11 12 13 14 15 16 17 18 19 20 21 22 23 24 25
000
FTUS41 KCLE 052300
TAFERI
TAF
KERI 052332Z 0600/0624 03008KT 5SM -SHRA BR OVC015
      TEMPO 0600/0603 BKN009 OVC015
     FM060300 08006KT 2SM -SHRA BR OVC006
      TEMPO 0609/0613 2SM BR OVC005
     FM061700 05008KT 6SM BR OVC015=

USA.gov is the U.S. government's official web portal to all federal, state and local government web resources and services.